createdAt,value
2023-04-15T00:01:55.034Z,7.60
2023-04-15T00:04:57.602Z,7.47
2023-04-15T00:08:01.498Z,6.53
2023-04-15T00:11:06.051Z,6.93
2023-04-15T00:14:08.651Z,6.80
2023-04-15T00:17:11.028Z,7.53
2023-04-15T00:20:13.605Z,6.05
2023-04-15T00:23:16.106Z,7.38
2023-04-15T00:26:20.023Z,6.75
2023-04-15T00:29:25.332Z,7.60
2023-04-15T00:32:28.148Z,7.75
2023-04-15T00:35:32.870Z,7.93
2023-04-15T00:38:36.765Z,7.40
2023-04-15T00:41:39.826Z,7.05
2023-04-15T00:44:42.854Z,7.25
2023-04-15T00:47:46.141Z,6.60
2023-04-15T00:50:48.615Z,7.18
2023-04-15T00:53:52.163Z,6.57
2023-04-15T00:56:54.901Z,6.35
2023-04-15T00:59:57.921Z,6.90
2023-04-15T01:03:00.774Z,7.60
2023-04-15T01:06:04.212Z,5.57
2023-04-15T01:12:13.061Z,6.43
2023-04-15T01:15:16.310Z,7.82
2023-04-15T01:18:19.497Z,9.32
2023-04-15T01:21:22.156Z,8.18
2023-04-15T01:24:27.245Z,7.80
2023-04-15T01:27:31.409Z,6.68
2023-04-15T01:30:37.128Z,9.38
2023-04-15T01:33:41.141Z,7.90
2023-04-15T01:36:44.102Z,8.23
2023-04-15T01:39:46.586Z,7.93
2023-04-15T01:42:49.377Z,7.13
2023-04-15T01:45:51.898Z,8.40
2023-04-15T01:48:54.673Z,6.68
2023-04-15T01:51:57.484Z,7.22
2023-04-15T01:55:00.006Z,7.13
2023-04-15T01:58:02.688Z,7.85
2023-04-15T02:01:05.243Z,7.32
2023-04-15T02:04:08.301Z,6.95
2023-04-15T02:07:11.592Z,7.68
2023-04-15T02:10:15.231Z,7.45
2023-04-15T02:13:18.057Z,8.25
2023-04-15T02:16:21.660Z,8.82
2023-04-15T02:19:24.675Z,7.00
2023-04-15T02:22:28.099Z,7.22
2023-04-15T02:25:30.996Z,6.72
2023-04-15T02:28:33.977Z,6.15
2023-04-15T02:31:38.242Z,7.85
2023-04-15T02:34:42.738Z,6.20
2023-04-15T02:37:46.490Z,7.53
2023-04-15T02:40:50.519Z,6.72
2023-04-15T02:43:53.714Z,6.90
2023-04-15T02:46:57.335Z,7.75
2023-04-15T02:50:01.865Z,5.63
2023-04-15T02:53:06.052Z,5.78
2023-04-15T02:56:08.912Z,5.53
2023-04-15T02:59:13.098Z,7.03
2023-04-15T03:02:16.276Z,6.30
2023-04-15T03:05:18.859Z,7.07
2023-04-15T03:08:25.818Z,6.15
2023-04-15T03:11:29.555Z,7.10
2023-04-15T03:14:32.958Z,6.13
2023-04-15T03:17:35.859Z,7.07
2023-04-15T03:23:41.673Z,5.50
2023-04-15T03:26:44.934Z,7.13
2023-04-15T03:29:51.948Z,6.57
2023-04-15T03:32:56.483Z,6.65
2023-04-15T03:42:07.718Z,6.50
2023-04-15T03:45:11.045Z,6.55
2023-04-15T03:48:17.871Z,6.63
2023-04-15T03:51:22.335Z,6.47
2023-04-15T03:54:25.841Z,6.13
2023-04-15T04:00:30.782Z,5.72
2023-04-15T04:03:33.837Z,6.72
2023-04-15T04:06:36.704Z,7.05
2023-04-15T04:09:41.749Z,8.00
2023-04-15T04:12:44.244Z,8.75
2023-04-15T04:15:46.809Z,6.95
2023-04-15T04:18:50.061Z,7.35
2023-04-15T04:21:56.733Z,7.57
2023-04-15T04:25:11.032Z,8.30
2023-04-15T04:28:17.095Z,6.03
2023-04-15T04:31:20.250Z,6.60
2023-04-15T04:34:23.428Z,7.13
2023-04-15T04:37:26.173Z,6.65
2023-04-15T04:40:29.053Z,7.40
2023-04-15T04:43:32.014Z,7.03
2023-04-15T04:46:34.580Z,7.38
2023-04-15T04:49:38.230Z,7.53
2023-04-15T04:52:42.031Z,6.93
2023-04-15T04:55:44.588Z,7.72
2023-04-15T04:58:48.119Z,7.93
2023-04-15T05:01:50.955Z,6.90
2023-04-15T05:04:54.892Z,7.60
2023-04-15T05:07:58.462Z,7.47
2023-04-15T05:11:01.992Z,8.45
2023-04-15T05:14:05.418Z,6.97
2023-04-15T05:17:09.129Z,6.43
2023-04-15T05:20:12.526Z,8.73
2023-04-15T05:23:15.499Z,7.30
2023-04-15T05:26:18.847Z,9.13
2023-04-15T05:29:22.340Z,8.35
2023-04-15T05:32:25.263Z,7.88
2023-04-15T05:35:28.020Z,8.50
2023-04-15T05:38:31.226Z,8.00
2023-04-15T05:41:34.791Z,8.55
2023-04-15T05:44:37.614Z,8.95
2023-04-15T05:47:41.124Z,8.55
2023-04-15T05:50:44.061Z,9.85
2023-04-15T05:53:46.838Z,10.70
2023-04-15T05:56:50.796Z,7.85
2023-04-15T05:59:53.755Z,7.75
2023-04-15T06:02:58.366Z,9.20
2023-04-15T06:06:02.772Z,7.65
2023-04-15T06:09:05.689Z,7.65
2023-04-15T06:12:12.472Z,8.48
2023-04-15T06:15:16.010Z,7.55
2023-04-15T06:18:18.550Z,7.85
2023-04-15T06:21:21.265Z,6.60
2023-04-15T06:24:23.912Z,5.88
2023-04-15T06:27:26.892Z,6.30
2023-04-15T06:30:30.211Z,6.15
2023-04-15T06:33:34.095Z,6.30
2023-04-15T06:36:36.849Z,7.60
2023-04-15T06:39:40.722Z,5.88
2023-04-15T06:42:44.400Z,6.03
2023-04-15T06:45:47.794Z,5.85
2023-04-15T06:51:54.546Z,5.68
2023-04-15T06:54:59.992Z,5.10
2023-04-15T06:58:03.183Z,5.25
2023-04-15T07:01:06.158Z,5.22
2023-04-15T07:04:08.950Z,4.72
2023-04-15T07:07:11.701Z,5.68
2023-04-15T07:10:15.981Z,4.80
2023-04-15T07:13:20.220Z,5.18
2023-04-15T07:16:23.258Z,4.90
2023-04-15T07:19:26.763Z,4.85
2023-04-15T07:22:31.872Z,4.45
2023-04-15T07:25:34.601Z,4.95
2023-04-15T07:28:37.604Z,5.10
2023-04-15T07:31:42.572Z,5.50
2023-04-15T07:34:45.232Z,4.68
2023-04-15T07:37:49.397Z,4.65
2023-04-15T07:40:52.663Z,4.93
2023-04-15T07:46:57.894Z,5.10
2023-04-15T07:50:01.176Z,5.70
2023-04-15T07:56:07.456Z,4.13
2023-04-15T07:59:10.869Z,4.03
2023-04-15T08:02:14.877Z,4.65
2023-04-15T08:05:17.462Z,5.75
2023-04-15T08:08:20.870Z,4.47
2023-04-15T08:11:28.062Z,3.88
2023-04-15T08:14:30.817Z,4.53
2023-04-15T08:17:35.928Z,6.95
2023-04-15T08:20:39.028Z,4.20
2023-04-15T08:23:41.624Z,4.78
2023-04-15T08:26:44.432Z,4.15
2023-04-15T08:29:47.224Z,3.92
2023-04-15T08:32:51.323Z,4.63
2023-04-15T08:35:54.242Z,3.45
2023-04-15T08:38:56.747Z,3.40
2023-04-15T08:42:03.606Z,3.70
2023-04-15T08:45:06.577Z,3.50
2023-04-15T08:48:09.682Z,4.85
2023-04-15T08:54:19.938Z,3.28
2023-04-15T08:57:28.073Z,4.07
2023-04-15T09:00:30.821Z,3.03
2023-04-15T09:03:33.805Z,2.85
2023-04-15T09:06:36.633Z,3.53
2023-04-15T09:09:40.317Z,3.15
2023-04-15T09:12:42.881Z,2.80
2023-04-15T09:15:45.798Z,4.57
2023-04-15T09:18:48.790Z,3.85
2023-04-15T09:21:59.813Z,3.92
2023-04-15T09:25:02.268Z,3.20
2023-04-15T09:28:04.804Z,2.75
2023-04-15T09:31:08.465Z,2.50
2023-04-15T09:34:12.112Z,2.42
2023-04-15T09:37:28.981Z,2.50
2023-04-15T09:40:41.964Z,3.17
2023-04-15T09:43:45.226Z,3.10
2023-04-15T09:46:47.956Z,2.72
2023-04-15T09:50:00.496Z,2.10
2023-04-15T09:53:04.373Z,3.10
2023-04-15T09:56:09.076Z,2.30
2023-04-15T09:59:11.566Z,2.58
2023-04-15T10:02:14.584Z,2.60
2023-04-15T10:08:21.924Z,3.00
2023-04-15T10:11:24.776Z,2.25
2023-04-15T10:14:27.396Z,2.15
2023-04-15T10:17:31.812Z,3.38
2023-04-15T10:20:34.382Z,4.78
2023-04-15T10:23:36.852Z,3.88
2023-04-15T10:26:39.352Z,5.05
2023-04-15T10:29:41.801Z,4.57
2023-04-15T10:32:44.774Z,4.40
2023-04-15T10:35:47.679Z,3.60
2023-04-15T10:38:50.200Z,3.75
2023-04-15T10:42:27.502Z,2.80
2023-04-15T10:45:34.794Z,2.80
2023-04-15T10:48:37.338Z,2.55
2023-04-15T10:51:42.276Z,2.80
2023-04-15T10:54:44.928Z,2.42
2023-04-15T10:57:52.684Z,2.10
2023-04-15T11:00:55.537Z,2.60
2023-04-15T11:03:58.167Z,2.50
2023-04-15T11:07:07.239Z,2.97
2023-04-15T11:10:31.869Z,2.40
2023-04-15T11:13:59.791Z,2.58
2023-04-15T11:17:11.151Z,3.08
2023-04-15T11:20:27.185Z,3.35
2023-04-15T11:23:40.815Z,2.80
2023-04-15T11:26:43.303Z,2.28
2023-04-15T11:29:45.690Z,2.22
2023-04-15T11:32:50.251Z,2.17
2023-04-15T11:35:54.349Z,1.77
2023-04-15T11:38:57.929Z,2.20
2023-04-15T11:42:00.580Z,2.50
2023-04-15T11:45:13.569Z,2.47
2023-04-15T11:48:16.483Z,2.42
2023-04-15T11:51:21.927Z,2.67
2023-04-15T11:54:30.896Z,2.38
2023-04-15T11:57:33.377Z,1.30
2023-04-15T12:00:35.960Z,2.33
2023-04-15T12:03:40.314Z,2.42
2023-04-15T12:06:43.145Z,2.33
2023-04-15T12:09:45.864Z,2.30
2023-04-15T12:12:52.741Z,2.08
2023-04-15T12:15:56.175Z,2.65
2023-04-15T12:19:01.080Z,3.75
2023-04-15T12:22:12.264Z,4.30
2023-04-15T12:25:14.944Z,4.45
2023-04-15T12:28:17.577Z,5.15
2023-04-15T12:31:20.549Z,5.03
2023-04-15T12:34:32.384Z,5.60
2023-04-15T12:37:34.777Z,5.32
2023-04-15T12:40:37.158Z,5.15
2023-04-15T12:43:40.747Z,5.00
2023-04-15T12:46:43.503Z,5.93
2023-04-15T12:49:47.209Z,4.97
2023-04-15T12:52:49.950Z,4.97
2023-04-15T12:55:52.728Z,4.40
2023-04-15T12:58:55.266Z,4.82
2023-04-15T13:01:58.605Z,4.18
2023-04-15T13:05:01.394Z,4.50
2023-04-15T13:08:05.352Z,5.43
2023-04-15T13:11:07.795Z,4.35
2023-04-15T13:14:11.944Z,5.00
2023-04-15T13:17:14.547Z,5.15
2023-04-15T13:20:17.584Z,4.65
2023-04-15T13:23:20.307Z,5.60
2023-04-15T13:26:23.978Z,5.85
2023-04-15T13:29:27.024Z,4.45
2023-04-15T13:32:29.466Z,4.00
2023-04-15T13:35:32.713Z,4.72
2023-04-15T13:38:35.837Z,4.78
2023-04-15T13:41:38.206Z,4.15
2023-04-15T13:44:40.808Z,4.60
2023-04-15T13:47:44.227Z,4.43
2023-04-15T13:50:47.033Z,6.50
2023-04-15T13:53:50.141Z,4.45
2023-04-15T13:56:52.568Z,4.82
2023-04-15T13:59:55.663Z,9.00
2023-04-15T14:02:58.461Z,5.85
2023-04-15T14:06:01.217Z,6.05
2023-04-15T14:09:04.304Z,6.20
2023-04-15T14:12:06.946Z,5.55
2023-04-15T14:15:09.933Z,5.57
2023-04-15T14:18:12.541Z,5.50
2023-04-15T14:21:15.068Z,4.90
2023-04-15T14:24:17.931Z,4.45
2023-04-15T14:27:20.738Z,4.65
2023-04-15T14:30:23.163Z,3.95
2023-04-15T14:33:26.459Z,4.35
2023-04-15T14:36:29.586Z,4.03
2023-04-15T14:39:33.483Z,5.60
2023-04-15T14:42:36.800Z,4.63
2023-04-15T14:45:42.170Z,3.35
2023-04-15T14:48:46.960Z,3.40
2023-04-15T14:51:49.562Z,2.60
2023-04-15T14:54:52.367Z,2.50
2023-04-15T14:57:55.064Z,1.88
2023-04-15T15:00:58.527Z,2.08
2023-04-15T15:04:01.398Z,2.30
2023-04-15T15:07:04.233Z,1.92
2023-04-15T15:10:07.279Z,2.45
2023-04-15T15:13:10.774Z,2.35
2023-04-15T15:16:14.649Z,2.58
2023-04-15T15:19:17.222Z,1.52
2023-04-15T15:22:21.338Z,2.35
2023-04-15T15:25:23.933Z,2.72
2023-04-15T15:28:27.364Z,1.85
2023-04-15T15:31:29.910Z,3.08
2023-04-15T15:34:32.473Z,2.42
2023-04-15T15:37:35.701Z,2.40
2023-04-15T15:46:42.873Z,2.40
2023-04-15T15:49:46.612Z,2.75
2023-04-15T15:52:50.161Z,3.20
2023-04-15T15:55:53.987Z,4.63
2023-04-15T15:58:56.710Z,4.00
2023-04-15T16:02:00.405Z,4.03
2023-04-15T16:05:03.156Z,4.97
2023-04-15T16:08:06.248Z,3.40
2023-04-15T16:11:08.774Z,4.35
2023-04-15T16:14:11.709Z,4.10
2023-04-15T16:17:14.190Z,4.10
2023-04-15T16:20:16.924Z,3.20
2023-04-15T16:23:20.279Z,3.35
2023-04-15T16:26:23.474Z,4.22
2023-04-15T16:29:26.306Z,3.53
2023-04-15T16:32:28.868Z,3.40
2023-04-15T16:35:34.475Z,4.10
2023-04-15T16:38:37.306Z,3.28
2023-04-15T16:41:39.862Z,3.70
2023-04-15T16:44:42.374Z,3.47
2023-04-15T16:47:44.990Z,4.45
2023-04-15T16:50:48.040Z,3.90
2023-04-15T16:53:50.892Z,3.42
2023-04-15T16:56:53.460Z,3.22
2023-04-15T16:59:56.277Z,3.55
2023-04-15T17:03:00.335Z,3.42
2023-04-15T17:06:02.966Z,4.85
2023-04-15T17:09:06.695Z,3.45
2023-04-15T17:12:09.607Z,4.00
2023-04-15T17:15:12.328Z,3.92
2023-04-15T17:18:14.977Z,5.00
2023-04-15T17:21:17.984Z,4.72
2023-04-15T17:24:20.560Z,4.30
2023-04-15T17:27:24.814Z,4.43
2023-04-15T17:30:27.710Z,4.82
2023-04-15T17:33:56.295Z,4.15
2023-04-15T17:36:53.817Z,4.28
2023-04-15T17:39:57.248Z,3.83
2023-04-15T17:43:00.217Z,4.57
2023-04-15T17:46:03.253Z,5.45
2023-04-15T17:49:06.839Z,3.25
2023-04-15T17:52:10.001Z,4.55
2023-04-15T17:55:13.032Z,4.07
2023-04-15T17:58:15.606Z,4.30
2023-04-15T18:01:18.197Z,3.80
2023-04-15T18:04:23.243Z,3.58
2023-04-15T18:07:27.676Z,5.55
2023-04-15T18:10:30.302Z,5.93
2023-04-15T18:13:32.965Z,5.45
2023-04-15T18:16:35.752Z,7.10
2023-04-15T18:19:38.559Z,9.80
2023-04-15T18:22:41.428Z,8.18
2023-04-15T18:25:45.285Z,10.63
2023-04-15T18:28:47.750Z,10.18
2023-04-15T18:34:55.633Z,8.18
2023-04-15T18:38:01.194Z,9.70
2023-04-15T18:41:05.508Z,8.75
2023-04-15T18:44:08.173Z,9.43
2023-04-15T18:47:10.682Z,10.05
2023-04-15T18:50:13.588Z,7.63
2023-04-15T18:53:16.896Z,10.75
2023-04-15T18:59:29.686Z,10.77
2023-04-15T19:02:33.258Z,6.80
2023-04-15T19:05:36.445Z,7.05
2023-04-15T19:08:39.232Z,9.18
2023-04-15T19:11:43.796Z,6.95
2023-04-15T19:14:46.815Z,7.03
2023-04-15T19:17:49.525Z,6.60
2023-04-15T19:20:52.921Z,8.80
2023-04-15T19:23:56.606Z,7.45
2023-04-15T19:26:59.333Z,8.23
2023-04-15T19:30:03.528Z,8.20
2023-04-15T19:33:06.269Z,9.00
2023-04-15T19:36:08.766Z,9.23
2023-04-15T19:39:11.802Z,9.75
2023-04-15T19:42:14.612Z,8.13
2023-04-15T19:45:17.234Z,8.43
2023-04-15T19:48:20.436Z,8.57
2023-04-15T19:51:23.986Z,7.97
2023-04-15T19:54:27.117Z,7.57
2023-04-15T19:57:29.764Z,10.60
2023-04-15T20:00:32.589Z,9.25
2023-04-15T20:03:35.559Z,10.25
2023-04-15T20:06:38.208Z,9.43
2023-04-15T20:09:43.978Z,10.25
2023-04-15T20:12:52.245Z,11.45
2023-04-15T20:15:55.851Z,10.38
2023-04-15T20:19:08.595Z,10.90
2023-04-15T20:22:11.054Z,10.48
2023-04-15T20:25:13.712Z,11.00
2023-04-15T20:28:18.184Z,10.38
2023-04-15T20:31:21.870Z,10.07
2023-04-15T20:34:24.469Z,11.07
2023-04-15T20:37:27.011Z,11.10
2023-04-15T20:40:29.555Z,17.85
2023-04-15T20:43:32.258Z,17.10
2023-04-15T20:46:34.836Z,16.88
2023-04-15T20:49:38.130Z,16.58
2023-04-15T20:55:46.000Z,19.05
2023-04-15T20:58:48.500Z,17.92
2023-04-15T21:01:51.731Z,17.40
2023-04-15T21:04:54.278Z,19.23
2023-04-15T21:07:57.006Z,21.70
2023-04-15T21:10:59.662Z,19.10
2023-04-15T21:14:02.435Z,18.80
2023-04-15T21:17:10.797Z,19.63
2023-04-15T21:20:14.414Z,18.40
2023-04-15T21:23:16.864Z,17.13
2023-04-15T21:26:19.277Z,17.23
2023-04-15T21:29:22.268Z,15.20
2023-04-15T21:32:25.667Z,15.30
2023-04-15T21:35:28.977Z,14.10
2023-04-15T21:41:33.779Z,13.35
2023-04-15T21:44:36.250Z,13.30
2023-04-15T21:48:01.249Z,13.45
2023-04-15T21:51:01.932Z,13.48
2023-04-15T21:54:05.360Z,13.50
2023-04-15T21:57:07.934Z,13.57
2023-04-15T22:00:12.024Z,13.40
2023-04-15T22:03:15.162Z,12.75
2023-04-15T22:06:18.028Z,12.13
2023-04-15T22:09:20.606Z,12.15
2023-04-15T22:12:23.711Z,13.75
2023-04-15T22:15:26.230Z,11.35
2023-04-15T22:18:28.762Z,14.95
2023-04-15T22:21:31.982Z,14.35
2023-04-15T22:24:39.841Z,14.20
2023-04-15T22:27:43.684Z,12.77
2023-04-15T22:30:46.587Z,11.43
2023-04-15T22:33:49.513Z,11.50
2023-04-15T22:36:52.301Z,13.52
2023-04-15T22:39:54.692Z,13.65
2023-04-15T22:42:57.159Z,13.38
2023-04-15T22:46:00.925Z,12.52
2023-04-15T22:49:06.289Z,14.82
2023-04-15T22:52:14.428Z,14.50
2023-04-15T22:55:22.736Z,12.90
2023-04-15T22:58:25.238Z,14.43
2023-04-15T23:01:28.001Z,14.30
2023-04-15T23:04:30.883Z,14.32
2023-04-15T23:07:33.423Z,13.85
2023-04-15T23:10:36.153Z,12.38
2023-04-15T23:13:38.936Z,12.68
2023-04-15T23:16:41.592Z,13.35
2023-04-15T23:19:45.274Z,16.42
2023-04-15T23:22:49.102Z,12.82
2023-04-15T23:25:51.814Z,12.90
2023-04-15T23:28:54.390Z,15.27
2023-04-15T23:31:57.233Z,13.43
2023-04-15T23:35:00.133Z,14.45
2023-04-15T23:38:02.764Z,14.07
2023-04-15T23:41:05.355Z,13.85
2023-04-15T23:44:09.658Z,16.23
2023-04-15T23:47:12.286Z,11.98
2023-04-15T23:50:14.783Z,15.35
2023-04-15T23:53:17.660Z,12.75
2023-04-15T23:56:20.967Z,12.93
